ENT7088 LTFE-EPWA
Flight info
| Callsign | ENT7088 |
|---|---|
| Flight time | N/A |
| Altitude | 36000 |
| Route | AKBUK N128 IMR/N0454F360 UN127 LMO DCT ATFIR/N0448F380 DCT OVDOT DCT SODGO DCT NEKUL DCT BUXLE DCT MEGIK DCT KEKED DCT RAZEC DCT LENOV DCT ORTEB DCT KONZI DCT LOGDA |
| Aircraft | B738/M-SDE2FGHIJ1RWXY/EB1 |
Departure
| Time | 2026-05-08 14:04 |
|---|---|
| Airport | Milas Bodrum International Airport (LTFE) |
Arrival
| Time | N/A |
|---|---|
| Airport | Warsaw Chopin Airport (EPWA) |
| Time | Latitude | Longitude | Altitude | Speed | Heading |
|---|---|---|---|---|---|
| 2026-05-08 13:38 | 37.24360 | 27.67889 | 29 ft | 0 kts | 197° |
| 2026-05-08 13:56 | 37.24377 | 27.67896 | 29 ft | 4 kts | 195° |
| 2026-05-08 13:56 | 37.24399 | 27.67904 | 29 ft | 4 kts | 193° |
| 2026-05-08 13:56 | 37.24424 | 27.67905 | 29 ft | 4 kts | 157° |
| 2026-05-08 13:56 | 37.24443 | 27.67885 | 29 ft | 4 kts | 117° |
| 2026-05-08 13:57 | 37.24449 | 27.67869 | 29 ft | 1 kts | 106° |
| 2026-05-08 14:00 | 37.24442 | 27.67897 | 29 ft | 7 kts | 106° |
| 2026-05-08 14:00 | 37.24421 | 27.67991 | 29 ft | 10 kts | 93° |
| 2026-05-08 14:01 | 37.24495 | 27.68058 | 29 ft | 17 kts | 18° |
| 2026-05-08 14:01 | 37.24605 | 27.68100 | 29 ft | 12 kts | 17° |
| 2026-05-08 14:01 | 37.24626 | 27.68109 | 29 ft | 0 kts | 17° |
| 2026-05-08 14:02 | 37.24632 | 27.68111 | 29 ft | 3 kts | 17° |
| 2026-05-08 14:03 | 37.24676 | 27.68127 | 29 ft | 10 kts | 17° |
| 2026-05-08 14:03 | 37.24744 | 27.68097 | 29 ft | 13 kts | 280° |
| 2026-05-08 14:03 | 37.24784 | 27.67917 | 31 ft | 48 kts | 287° |
| 2026-05-08 14:03 | 37.24948 | 27.67220 | 30 ft | 117 kts | 286° |
| 2026-05-08 14:04 | 37.25217 | 27.66008 | 108 ft | 164 kts | 284° |
| 2026-05-08 14:04 | 37.25561 | 27.64626 | 821 ft | 168 kts | 283° |
| 2026-05-08 14:04 | 37.25807 | 27.63177 | 1504 ft | 178 kts | 282° |
| 2026-05-08 14:04 | 37.26100 | 27.61596 | 2029 ft | 199 kts | 283° |
| 2026-05-08 14:05 | 37.26456 | 27.59795 | 2344 ft | 223 kts | 284° |
| 2026-05-08 14:05 | 37.26853 | 27.57818 | 2687 ft | 240 kts | 284° |
| 2026-05-08 14:05 | 37.27271 | 27.55785 | 3405 ft | 246 kts | 284° |
| 2026-05-08 14:05 | 37.27719 | 27.53583 | 3804 ft | 273 kts | 283° |
| 2026-05-08 14:06 | 37.28179 | 27.51266 | 4872 ft | 269 kts | 283° |
| 2026-05-08 14:06 | 37.28641 | 27.49024 | 5987 ft | 265 kts | 283° |
| 2026-05-08 14:06 | 37.29128 | 27.46763 | 6765 ft | 272 kts | 290° |
| 2026-05-08 14:06 | 37.30265 | 27.44841 | 7474 ft | 281 kts | 322° |
| 2026-05-08 14:07 | 37.32086 | 27.43963 | 8283 ft | 290 kts | 353° |
| 2026-05-08 14:07 | 37.34130 | 27.44162 | 8800 ft | 296 kts | 5° |
| 2026-05-08 14:07 | 37.36157 | 27.44505 | 8900 ft | 298 kts | 4° |
| 2026-05-08 14:07 | 37.38251 | 27.44812 | 9255 ft | 305 kts | 2° |
| 2026-05-08 14:08 | 37.40362 | 27.45071 | 10161 ft | 304 kts | 1° |
| 2026-05-08 14:08 | 37.42514 | 27.45306 | 10595 ft | 321 kts | 1° |
| 2026-05-08 14:08 | 37.44820 | 27.45545 | 10770 ft | 344 kts | 1° |
| 2026-05-08 14:08 | 37.47275 | 27.45791 | 11085 ft | 360 kts | 359° |
| 2026-05-08 14:09 | 37.49782 | 27.45618 | 11740 ft | 359 kts | 347° |
| 2026-05-08 14:09 | 37.51383 | 27.45187 | 12261 ft | 355 kts | 340° |
| 2026-05-08 14:09 | 37.54414 | 27.43652 | 13324 ft | 352 kts | 331° |
| 2026-05-08 14:09 | 37.56622 | 27.42316 | 14043 ft | 353 kts | 330° |
| 2026-05-08 14:10 | 37.58848 | 27.40978 | 14669 ft | 356 kts | 331° |
| 2026-05-08 14:10 | 37.61095 | 27.39652 | 15133 ft | 359 kts | 332° |
| 2026-05-08 14:10 | 37.63372 | 27.38326 | 15758 ft | 361 kts | 332° |
| 2026-05-08 14:10 | 37.64892 | 27.37473 | 16225 ft | 361 kts | 333° |
| 2026-05-08 14:11 | 37.67225 | 27.36197 | 16875 ft | 363 kts | 333° |
| 2026-05-08 14:11 | 37.69531 | 27.34947 | 17448 ft | 365 kts | 333° |
| 2026-05-08 14:11 | 37.71865 | 27.33685 | 18120 ft | 366 kts | 333° |
| 2026-05-08 14:11 | 37.74214 | 27.32409 | 18558 ft | 372 kts | 333° |
| 2026-05-08 14:12 | 37.76537 | 27.30920 | 19028 ft | 372 kts | 325° |
| 2026-05-08 14:12 | 37.78731 | 27.29172 | 19582 ft | 372 kts | 324° |
| 2026-05-08 14:12 | 37.80917 | 27.27377 | 20103 ft | 375 kts | 323° |
| 2026-05-08 14:12 | 37.83109 | 27.25568 | 20608 ft | 377 kts | 323° |
| 2026-05-08 14:13 | 37.85318 | 27.23751 | 21110 ft | 379 kts | 323° |
| 2026-05-08 14:13 | 37.87541 | 27.21931 | 21588 ft | 382 kts | 323° |
| 2026-05-08 14:13 | 37.89782 | 27.20106 | 22056 ft | 385 kts | 323° |
| 2026-05-08 14:13 | 37.92017 | 27.18290 | 22506 ft | 387 kts | 323° |
| 2026-05-08 14:14 | 37.94289 | 27.16447 | 22960 ft | 389 kts | 323° |
| 2026-05-08 14:14 | 37.96575 | 27.14593 | 23411 ft | 392 kts | 323° |
| 2026-05-08 14:14 | 37.98876 | 27.12727 | 23827 ft | 394 kts | 323° |
| 2026-05-08 14:14 | 38.01190 | 27.10850 | 24188 ft | 396 kts | 323° |
| 2026-05-08 14:15 | 38.03518 | 27.08960 | 24543 ft | 399 kts | 323° |
| 2026-05-08 14:15 | 38.05865 | 27.07054 | 24900 ft | 401 kts | 322° |
| 2026-05-08 14:15 | 38.08223 | 27.05136 | 25238 ft | 404 kts | 322° |
| 2026-05-08 14:15 | 38.10595 | 27.03206 | 25565 ft | 407 kts | 322° |
| 2026-05-08 14:16 | 38.12986 | 27.01259 | 25897 ft | 409 kts | 322° |
| 2026-05-08 14:16 | 38.15385 | 26.99305 | 26236 ft | 410 kts | 322° |
| 2026-05-08 14:16 | 38.17795 | 26.97339 | 26561 ft | 413 kts | 322° |
| 2026-05-08 14:16 | 38.20217 | 26.95361 | 26890 ft | 415 kts | 321° |
| 2026-05-08 14:17 | 38.22654 | 26.93371 | 27206 ft | 417 kts | 321° |
| 2026-05-08 14:17 | 38.25107 | 26.91365 | 27542 ft | 419 kts | 321° |
| 2026-05-08 14:17 | 38.27565 | 26.89354 | 27867 ft | 421 kts | 321° |
| 2026-05-08 14:17 | 38.30035 | 26.87331 | 28169 ft | 423 kts | 321° |
| 2026-05-08 14:18 | 38.32517 | 26.85296 | 28493 ft | 425 kts | 321° |
| 2026-05-08 14:18 | 38.35014 | 26.83249 | 28786 ft | 427 kts | 321° |
| 2026-05-08 14:18 | 38.37484 | 26.81220 | 29070 ft | 429 kts | 321° |
| 2026-05-08 14:18 | 38.39998 | 26.79155 | 29351 ft | 431 kts | 321° |
| 2026-05-08 14:19 | 38.42525 | 26.77078 | 29727 ft | 430 kts | 321° |
| 2026-05-08 14:19 | 38.45037 | 26.75013 | 30213 ft | 428 kts | 321° |
| 2026-05-08 14:19 | 38.47531 | 26.72961 | 30574 ft | 426 kts | 321° |
| 2026-05-08 14:19 | 38.50022 | 26.70909 | 30883 ft | 426 kts | 321° |
| 2026-05-08 14:20 | 38.52524 | 26.68843 | 31176 ft | 426 kts | 321° |
| 2026-05-08 14:20 | 38.55013 | 26.66787 | 31506 ft | 425 kts | 321° |
| 2026-05-08 14:20 | 38.57494 | 26.64737 | 31844 ft | 424 kts | 321° |
| 2026-05-08 14:20 | 38.59970 | 26.62689 | 32150 ft | 423 kts | 321° |
| 2026-05-08 14:21 | 38.62441 | 26.60643 | 32444 ft | 423 kts | 321° |
| 2026-05-08 14:21 | 38.64909 | 26.58598 | 32750 ft | 422 kts | 321° |
| 2026-05-08 14:21 | 38.67372 | 26.56555 | 33051 ft | 421 kts | 321° |
| 2026-05-08 14:21 | 38.69804 | 26.54536 | 33342 ft | 421 kts | 321° |
| 2026-05-08 14:22 | 38.72259 | 26.52496 | 33630 ft | 420 kts | 321° |
| 2026-05-08 14:22 | 38.74710 | 26.50458 | 33909 ft | 420 kts | 321° |
| 2026-05-08 14:22 | 38.77163 | 26.48417 | 34180 ft | 419 kts | 321° |
| 2026-05-08 14:22 | 38.79610 | 26.46379 | 34413 ft | 419 kts | 321° |
| 2026-05-08 14:23 | 38.82051 | 26.44345 | 34634 ft | 419 kts | 321° |
| 2026-05-08 14:23 | 38.84423 | 26.42197 | 34834 ft | 414 kts | 315° |
| 2026-05-08 14:23 | 38.86651 | 26.39859 | 35049 ft | 413 kts | 315° |
| 2026-05-08 14:23 | 38.88861 | 26.37501 | 35250 ft | 413 kts | 314° |
| 2026-05-08 14:24 | 38.91072 | 26.35132 | 35420 ft | 414 kts | 314° |
| 2026-05-08 14:24 | 38.93261 | 26.32790 | 35610 ft | 414 kts | 314° |
| 2026-05-08 14:24 | 38.95478 | 26.30425 | 35835 ft | 413 kts | 315° |
| 2026-05-08 14:24 | 38.97691 | 26.28069 | 36023 ft | 413 kts | 315° |
| 2026-05-08 14:25 | 38.99910 | 26.25708 | 36105 ft | 415 kts | 315° |
| 2026-05-08 14:25 | 39.04381 | 26.20949 | 36103 ft | 417 kts | 315° |
| 2026-05-08 14:26 | 39.08829 | 26.16215 | 36096 ft | 413 kts | 315° |
| 2026-05-08 14:26 | 39.13239 | 26.11509 | 36092 ft | 410 kts | 314° |
| 2026-05-08 14:27 | 39.17615 | 26.06830 | 36085 ft | 408 kts | 314° |
| 2026-05-08 14:27 | 39.21984 | 26.02148 | 36103 ft | 409 kts | 314° |
| 2026-05-08 14:28 | 39.26363 | 25.97450 | 36091 ft | 410 kts | 314° |
| 2026-05-08 14:28 | 39.30725 | 25.92742 | 36095 ft | 412 kts | 314° |
| 2026-05-08 14:29 | 39.35073 | 25.87905 | 36095 ft | 414 kts | 313° |
| 2026-05-08 14:29 | 39.39432 | 25.83018 | 36096 ft | 416 kts | 313° |
| 2026-05-08 14:30 | 39.43818 | 25.78107 | 36092 ft | 418 kts | 313° |
| 2026-05-08 14:30 | 39.48228 | 25.73168 | 36086 ft | 420 kts | 313° |
| 2026-05-08 14:31 | 39.52647 | 25.68214 | 36086 ft | 420 kts | 313° |
| 2026-05-08 14:31 | 39.57070 | 25.63248 | 36085 ft | 421 kts | 313° |
| 2026-05-08 14:32 | 39.63671 | 25.55818 | 36084 ft | 420 kts | 313° |
| 2026-05-08 14:32 | 39.68083 | 25.50840 | 36078 ft | 420 kts | 313° |
| 2026-05-08 14:33 | 39.72488 | 25.45862 | 36070 ft | 419 kts | 313° |
| 2026-05-08 14:33 | 39.76885 | 25.40884 | 36065 ft | 419 kts | 313° |
| 2026-05-08 14:34 | 39.81253 | 25.35930 | 36054 ft | 419 kts | 313° |
| 2026-05-08 14:34 | 39.85504 | 25.31098 | 36049 ft | 419 kts | 313° |
| 2026-05-08 14:35 | 39.89894 | 25.26103 | 36060 ft | 419 kts | 313° |
| 2026-05-08 14:35 | 39.94423 | 25.21245 | 36069 ft | 425 kts | 317° |
| 2026-05-08 14:36 | 39.99225 | 25.16651 | 36046 ft | 429 kts | 318° |
| 2026-05-08 14:36 | 40.04040 | 25.12092 | 36056 ft | 429 kts | 318° |
| 2026-05-08 14:37 | 40.08857 | 25.07483 | 36052 ft | 429 kts | 318° |
| 2026-05-08 14:37 | 40.13670 | 25.02843 | 36071 ft | 429 kts | 318° |
| 2026-05-08 14:38 | 40.18473 | 24.98195 | 36076 ft | 430 kts | 318° |
| 2026-05-08 14:38 | 40.23247 | 24.93565 | 36075 ft | 430 kts | 318° |
| 2026-05-08 14:39 | 40.28058 | 24.88892 | 36078 ft | 431 kts | 318° |
| 2026-05-08 14:39 | 40.32881 | 24.84199 | 36073 ft | 432 kts | 318° |
| 2026-05-08 14:40 | 40.37701 | 24.79501 | 36075 ft | 432 kts | 318° |
| 2026-05-08 14:40 | 40.42528 | 24.74788 | 36079 ft | 433 kts | 318° |
| 2026-05-08 14:41 | 40.47366 | 24.70054 | 36080 ft | 434 kts | 318° |
| 2026-05-08 14:41 | 40.52208 | 24.65309 | 36080 ft | 435 kts | 318° |
| 2026-05-08 14:42 | 40.57035 | 24.60569 | 36088 ft | 437 kts | 318° |
| 2026-05-08 14:42 | 40.61925 | 24.55757 | 36074 ft | 439 kts | 319° |
| 2026-05-08 14:43 | 40.66825 | 24.50929 | 36077 ft | 440 kts | 319° |
| 2026-05-08 14:43 | 40.71729 | 24.46087 | 36062 ft | 440 kts | 319° |
| 2026-05-08 14:44 | 40.76638 | 24.41232 | 36064 ft | 440 kts | 319° |
| 2026-05-08 14:44 | 40.81531 | 24.36382 | 36064 ft | 440 kts | 319° |
| 2026-05-08 14:45 | 40.86394 | 24.31553 | 36063 ft | 440 kts | 319° |
| 2026-05-08 14:45 | 40.91283 | 24.26688 | 36077 ft | 440 kts | 319° |
| 2026-05-08 14:46 | 40.96171 | 24.21816 | 36070 ft | 440 kts | 319° |
| 2026-05-08 14:46 | 41.01061 | 24.16932 | 36078 ft | 440 kts | 319° |
| 2026-05-08 14:47 | 41.05950 | 24.12040 | 36078 ft | 441 kts | 319° |
| 2026-05-08 14:47 | 41.10848 | 24.07130 | 36083 ft | 441 kts | 319° |
| 2026-05-08 14:48 | 41.15743 | 24.02212 | 36096 ft | 442 kts | 319° |
| 2026-05-08 14:48 | 41.20658 | 23.97265 | 36077 ft | 443 kts | 319° |
| 2026-05-08 14:49 | 41.25559 | 23.92323 | 36086 ft | 444 kts | 319° |
| 2026-05-08 14:49 | 41.30456 | 23.87376 | 36079 ft | 442 kts | 319° |
| 2026-05-08 14:50 | 41.35362 | 23.82409 | 36077 ft | 443 kts | 319° |
| 2026-05-08 14:50 | 41.40583 | 23.78006 | 36080 ft | 449 kts | 333° |
| 2026-05-08 14:51 | 41.46641 | 23.75734 | 36094 ft | 455 kts | 346° |
| 2026-05-08 14:51 | 41.52888 | 23.74294 | 36084 ft | 457 kts | 347° |
| 2026-05-08 14:52 | 41.62311 | 23.72123 | 36080 ft | 458 kts | 347° |
| 2026-05-08 14:53 | 41.68599 | 23.70609 | 36080 ft | 459 kts | 347° |
| 2026-05-08 14:53 | 41.74864 | 23.69079 | 36078 ft | 460 kts | 347° |
| 2026-05-08 14:54 | 41.81183 | 23.67531 | 36065 ft | 460 kts | 347° |
| 2026-05-08 14:54 | 41.87471 | 23.65989 | 36071 ft | 460 kts | 347° |
| 2026-05-08 14:55 | 41.93764 | 23.64444 | 36063 ft | 459 kts | 347° |
| 2026-05-08 14:55 | 42.00019 | 23.62906 | 36072 ft | 458 kts | 347° |
| 2026-05-08 14:56 | 42.06275 | 23.61364 | 36058 ft | 457 kts | 347° |
| 2026-05-08 14:56 | 42.12502 | 23.59826 | 36062 ft | 455 kts | 347° |
| 2026-05-08 14:57 | 42.18748 | 23.58280 | 36064 ft | 455 kts | 347° |
| 2026-05-08 14:57 | 42.24955 | 23.56742 | 36070 ft | 453 kts | 347° |
| 2026-05-08 14:58 | 42.31175 | 23.55196 | 36046 ft | 452 kts | 347° |
| 2026-05-08 14:58 | 42.37256 | 23.53682 | 36048 ft | 451 kts | 347° |
| 2026-05-08 14:59 | 42.43408 | 23.52147 | 36046 ft | 451 kts | 347° |
| 2026-05-08 14:59 | 42.51547 | 23.50112 | 36055 ft | 451 kts | 347° |
| 2026-05-08 15:00 | 42.57728 | 23.48562 | 36057 ft | 452 kts | 347° |
| 2026-05-08 15:00 | 42.63749 | 23.47050 | 36058 ft | 454 kts | 347° |
| 2026-05-08 15:01 | 42.70007 | 23.45476 | 36055 ft | 455 kts | 347° |
| 2026-05-08 15:01 | 42.76228 | 23.43907 | 36054 ft | 457 kts | 347° |
| 2026-05-08 15:02 | 42.82460 | 23.42332 | 36062 ft | 459 kts | 347° |
| 2026-05-08 15:02 | 42.88765 | 23.40736 | 36049 ft | 461 kts | 347° |
| 2026-05-08 15:03 | 42.95057 | 23.39140 | 36045 ft | 461 kts | 347° |
| 2026-05-08 15:03 | 43.01364 | 23.37537 | 36032 ft | 461 kts | 347° |
| 2026-05-08 15:04 | 43.07662 | 23.35933 | 36023 ft | 460 kts | 347° |
| 2026-05-08 15:04 | 43.13903 | 23.34340 | 36040 ft | 457 kts | 347° |
| 2026-05-08 15:05 | 43.20176 | 23.32736 | 36026 ft | 456 kts | 347° |
| 2026-05-08 15:05 | 43.26394 | 23.31141 | 36020 ft | 454 kts | 347° |
| 2026-05-08 15:06 | 43.32580 | 23.29552 | 36019 ft | 452 kts | 347° |
| 2026-05-08 15:06 | 43.38748 | 23.27965 | 36017 ft | 451 kts | 347° |
| 2026-05-08 15:07 | 43.44897 | 23.26378 | 36007 ft | 451 kts | 347° |
| 2026-05-08 15:07 | 43.51101 | 23.24774 | 36003 ft | 451 kts | 347° |
| 2026-05-08 15:08 | 43.57232 | 23.23186 | 35999 ft | 451 kts | 347° |
| 2026-05-08 15:08 | 43.63437 | 23.21576 | 35996 ft | 452 kts | 347° |
| 2026-05-08 15:09 | 43.69630 | 23.19964 | 35994 ft | 453 kts | 347° |
| 2026-05-08 15:09 | 43.75825 | 23.18350 | 35987 ft | 454 kts | 347° |
| 2026-05-08 15:10 | 43.82020 | 23.16732 | 35987 ft | 455 kts | 347° |
| 2026-05-08 15:10 | 43.88251 | 23.15100 | 35982 ft | 455 kts | 347° |
| 2026-05-08 15:11 | 43.94476 | 23.13468 | 35980 ft | 455 kts | 347° |
| 2026-05-08 15:11 | 44.00703 | 23.11831 | 35977 ft | 455 kts | 347° |
| 2026-05-08 15:12 | 44.06930 | 23.10190 | 35970 ft | 455 kts | 347° |
| 2026-05-08 15:12 | 44.13107 | 23.08560 | 35971 ft | 454 kts | 347° |
| 2026-05-08 15:13 | 44.19304 | 23.06920 | 35969 ft | 453 kts | 346° |
| 2026-05-08 15:13 | 44.25492 | 23.05279 | 35968 ft | 452 kts | 346° |